Time;durP1;ratioP1;P1;durP2;ratioP2;P2;SDS_P1;SDS_P2;PMS_P1;PMS_P2;Temp;Humidity;BMP_temperature;BMP_pressure;BME280_temperature;BME280_humidity;BME280_pressure;Samples;Min_cycle;Max_cycle;Signal;HPM_P1;HPM_P2
2022/08/15 00:02:21;;;;;;;15.52;10.43;;;;;;;;;;5014715;28;20042;-78
2022/08/15 00:05:08;;;;;;;16.35;9.95;;;;;;;;;;5013168;28;20053;-79
2022/08/15 00:07:34;;;;;;;16.23;10.25;;;;;;;;;;5015230;28;20030;-79
2022/08/15 00:10:14;;;;;;;14.93;10.80;;;;;;;;;;5015314;28;20053;-78
2022/08/15 00:13:08;;;;;;;19.80;10.68;;;;;;;;;;5014066;28;20113;-78
2022/08/15 00:15:40;;;;;;;14.13;10.60;;;;;;;;;;5013959;28;20078;-78
2022/08/15 00:18:09;;;;;;;13.27;10.13;;;;;;;;;;5004285;28;20288;-78
2022/08/15 00:20:38;;;;;;;15.32;10.90;;;;;;;;;;4994226;28;20050;-78
2022/08/15 00:23:17;;;;;;;14.93;10.20;;;;;;;;;;4994246;28;20042;-79
2022/08/15 00:25:47;;;;;;;12.45;9.77;;;;;;;;;;4994670;28;20110;-79
2022/08/15 00:28:25;;;;;;;14.23;10.43;;;;;;;;;;4993193;28;20066;-79
2022/08/15 00:31:08;;;;;;;13.93;9.82;;;;;;;;;;4994391;28;20074;-79
2022/08/15 00:33:36;;;;;;;18.67;10.82;;;;;;;;;;4994124;28;20090;-79
2022/08/15 00:36:03;;;;;;;13.63;11.00;;;;;;;;;;4995085;28;20047;-79
2022/08/15 00:38:49;;;;;;;15.88;10.50;;;;;;;;;;4994702;28;20125;-78
2022/08/15 00:44:03;;;;;;;12.02;9.77;;;;;;;;;;4994551;28;20047;-77
2022/08/15 00:46:33;;;;;;;14.63;10.30;;;;;;;;;;4992649;28;20039;-79
2022/08/15 00:49:01;;;;;;;15.55;10.48;;;;;;;;;;4990838;28;20057;-78
2022/08/15 00:51:50;;;;;;;15.73;10.90;;;;;;;;;;4982938;28;20081;-78
2022/08/15 00:54:24;;;;;;;17.17;11.05;;;;;;;;;;4988199;28;20050;-78
2022/08/15 00:57:10;;;;;;;13.57;11.02;;;;;;;;;;4991623;28;20060;-78
2022/08/15 00:59:46;;;;;;;14.88;10.50;;;;;;;;;;5013376;28;20099;-77
2022/08/15 01:02:24;;;;;;;18.40;11.77;;;;;;;;;;5014340;28;20053;-77
2022/08/15 01:05:04;;;;;;;15.13;12.30;;;;;;;;;;5003948;28;20153;-77
2022/08/15 01:07:41;;;;;;;19.17;12.05;;;;;;;;;;5004197;28;20054;-77
2022/08/15 01:10:08;;;;;;;17.98;11.70;;;;;;;;;;5001978;28;20049;-77
2022/08/15 01:12:51;;;;;;;16.35;11.23;;;;;;;;;;5027020;28;20085;-79
2022/08/15 01:15:18;;;;;;;15.90;11.35;;;;;;;;;;5028635;28;20042;-78
2022/08/15 01:17:45;;;;;;;14.73;10.35;;;;;;;;;;5029822;28;20065;-78
2022/08/15 01:20:23;;;;;;;18.90;11.15;;;;;;;;;;5027601;28;20046;-77
2022/08/15 01:22:59;;;;;;;15.48;11.02;;;;;;;;;;5030782;28;20049;-78
2022/08/15 01:25:36;;;;;;;13.02;10.50;;;;;;;;;;5033983;28;20056;-78
2022/08/15 01:28:25;;;;;;;14.07;10.40;;;;;;;;;;5031129;28;20126;-77
2022/08/15 01:30:58;;;;;;;14.95;10.43;;;;;;;;;;5010724;28;20054;-78
2022/08/15 01:33:31;;;;;;;16.75;11.68;;;;;;;;;;5012200;28;20133;-78
2022/08/15 01:35:59;;;;;;;19.92;11.77;;;;;;;;;;5011494;28;20069;-76
2022/08/15 01:38:27;;;;;;;16.95;11.05;;;;;;;;;;4994262;28;20062;-77
2022/08/15 01:41:19;;;;;;;16.17;11.48;;;;;;;;;;4994064;28;20056;-77
2022/08/15 01:44:20;;;;;;;17.58;12.68;;;;;;;;;;4994948;28;20093;-76
2022/08/15 01:47:02;;;;;;;17.48;12.95;;;;;;;;;;5009886;28;20102;-77
2022/08/15 01:49:35;;;;;;;18.88;12.82;;;;;;;;;;5010711;28;20058;-77
2022/08/15 01:52:10;;;;;;;16.25;12.00;;;;;;;;;;5009726;28;20042;-77
2022/08/15 01:54:56;;;;;;;16.38;10.50;;;;;;;;;;5009395;28;20130;-77
2022/08/15 01:57:31;;;;;;;16.17;10.45;;;;;;;;;;5009074;28;20066;-77
2022/08/15 01:59:59;;;;;;;13.52;10.68;;;;;;;;;;5009073;28;20030;-76
2022/08/15 02:02:27;;;;;;;13.60;10.43;;;;;;;;;;5009768;28;20072;-76
2022/08/15 02:05:08;;;;;;;14.02;10.68;;;;;;;;;;5016168;28;20100;-76
2022/08/15 02:07:37;;;;;;;13.95;10.18;;;;;;;;;;5015993;28;20038;-76
2022/08/15 02:10:14;;;;;;;14.45;10.52;;;;;;;;;;5012075;28;20053;-78
2022/08/15 02:12:48;;;;;;;13.60;10.63;;;;;;;;;;5011540;28;20112;-79
2022/08/15 02:15:35;;;;;;;14.98;10.18;;;;;;;;;;5005636;28;20050;-78
2022/08/15 02:18:02;;;;;;;16.90;11.30;;;;;;;;;;5003648;28;20070;-79
2022/08/15 02:20:30;;;;;;;13.05;9.75;;;;;;;;;;4984926;28;20104;-77
2022/08/15 02:23:05;;;;;;;14.65;10.85;;;;;;;;;;5005642;28;20096;-79
2022/08/15 02:25:31;;;;;;;17.45;11.18;;;;;;;;;;5030027;28;20050;-78
2022/08/15 02:28:03;;;;;;;18.02;11.00;;;;;;;;;;5012834;28;20058;-79
2022/08/15 02:30:50;;;;;;;15.35;11.00;;;;;;;;;;4997063;28;20114;-78
2022/08/15 02:33:18;;;;;;;16.48;11.00;;;;;;;;;;5009678;28;20078;-78
2022/08/15 02:35:47;;;;;;;19.40;12.10;;;;;;;;;;5012876;28;20049;-78
2022/08/15 02:38:19;;;;;;;16.67;12.25;;;;;;;;;;5015130;28;20078;-78
2022/08/15 02:40:46;;;;;;;17.63;12.57;;;;;;;;;;5013285;28;20034;-78
2022/08/15 02:43:17;;;;;;;18.58;12.20;;;;;;;;;;5012590;28;20108;-79
2022/08/15 02:45:48;;;;;;;17.35;12.73;;;;;;;;;;5013442;28;20047;-78
2022/08/15 02:48:35;;;;;;;17.33;12.73;;;;;;;;;;5010517;28;20119;-78
2022/08/15 02:51:05;;;;;;;17.85;12.98;;;;;;;;;;5005593;28;20046;-78
2022/08/15 02:53:36;;;;;;;18.17;12.35;;;;;;;;;;5005578;28;20054;-79
2022/08/15 02:56:13;;;;;;;16.63;12.10;;;;;;;;;;5022877;28;20053;-78
2022/08/15 02:58:42;;;;;;;17.27;13.27;;;;;;;;;;5023906;28;20360;-79
2022/08/15 03:01:09;;;;;;;18.42;12.70;;;;;;;;;;5022596;28;20077;-78
2022/08/15 03:03:42;;;;;;;17.45;13.02;;;;;;;;;;5023238;28;20050;-77
2022/08/15 03:06:10;;;;;;;17.92;13.20;;;;;;;;;;5021091;28;20073;-78
2022/08/15 03:09:00;;;;;;;20.45;13.93;;;;;;;;;;5006954;28;20531;-79
2022/08/15 03:11:27;;;;;;;18.83;14.30;;;;;;;;;;5010474;28;20117;-78
2022/08/15 03:14:16;;;;;;;22.85;14.57;;;;;;;;;;5002644;28;20046;-78
2022/08/15 03:17:00;;;;;;;19.80;14.13;;;;;;;;;;5004925;28;20047;-78
2022/08/15 03:19:27;;;;;;;20.30;13.48;;;;;;;;;;4995224;28;20054;-76
2022/08/15 03:21:54;;;;;;;17.17;12.82;;;;;;;;;;5012167;28;20061;-77
2022/08/15 03:24:22;;;;;;;22.33;14.38;;;;;;;;;;5009120;28;20054;-77
2022/08/15 03:26:49;;;;;;;18.77;13.73;;;;;;;;;;5005408;28;20157;-78
2022/08/15 03:29:20;;;;;;;14.63;12.18;;;;;;;;;;5000063;28;20058;-78
2022/08/15 03:31:49;;;;;;;18.88;12.73;;;;;;;;;;4985391;28;20068;-77
2022/08/15 03:34:17;;;;;;;15.18;12.00;;;;;;;;;;4999132;28;20245;-78
2022/08/15 03:36:45;;;;;;;17.90;12.23;;;;;;;;;;4997546;28;20145;-78
2022/08/15 03:39:18;;;;;;;18.92;11.80;;;;;;;;;;5000173;28;20077;-78
2022/08/15 03:41:45;;;;;;;17.42;11.63;;;;;;;;;;5006833;28;20058;-79
2022/08/15 03:44:19;;;;;;;19.10;12.25;;;;;;;;;;5006338;28;20511;-77
2022/08/15 03:46:52;;;;;;;16.08;12.27;;;;;;;;;;5009906;28;20190;-78
2022/08/15 03:49:19;;;;;;;15.80;13.07;;;;;;;;;;5001947;28;20046;-79
2022/08/15 03:52:07;;;;;;;20.02;13.25;;;;;;;;;;5008639;28;20214;-78
2022/08/15 03:54:35;;;;;;;19.83;13.65;;;;;;;;;;5011810;28;20056;-77
2022/08/15 03:57:05;;;;;;;17.90;13.23;;;;;;;;;;5018380;28;20093;-77
2022/08/15 03:59:34;;;;;;;24.35;12.82;;;;;;;;;;5012303;28;20050;-78
2022/08/15 04:02:09;;;;;;;20.48;12.98;;;;;;;;;;5025214;28;20062;-77
2022/08/15 04:04:51;;;;;;;17.80;13.02;;;;;;;;;;5016636;28;20192;-78
2022/08/15 04:07:18;;;;;;;18.40;13.35;;;;;;;;;;5022863;28;20171;-78
2022/08/15 04:09:49;;;;;;;19.15;13.48;;;;;;;;;;5024316;28;20046;-79
2022/08/15 04:12:28;;;;;;;18.10;12.35;;;;;;;;;;5026837;28;20046;-78
2022/08/15 04:14:55;;;;;;;21.00;13.45;;;;;;;;;;5025268;28;20054;-78
2022/08/15 04:17:21;;;;;;;18.35;12.10;;;;;;;;;;5027793;28;20359;-77
2022/08/15 04:20:08;;;;;;;23.77;12.80;;;;;;;;;;5030725;28;20072;-78
2022/08/15 04:22:56;;;;;;;17.27;11.82;;;;;;;;;;5001548;28;20066;-79
2022/08/15 04:25:29;;;;;;;17.13;12.50;;;;;;;;;;4995099;28;20503;-78
2022/08/15 04:28:17;;;;;;;14.95;11.68;;;;;;;;;;4989532;28;20046;-76
2022/08/15 04:31:05;;;;;;;15.98;12.77;;;;;;;;;;4989482;28;20046;-77
2022/08/15 04:33:32;;;;;;;14.35;11.23;;;;;;;;;;4990378;28;20077;-76
2022/08/15 04:36:20;;;;;;;18.80;13.05;;;;;;;;;;4991877;28;20057;-77
2022/08/15 04:38:55;;;;;;;22.33;13.25;;;;;;;;;;4989888;28;20544;-77
2022/08/15 04:41:22;;;;;;;19.98;13.43;;;;;;;;;;4989026;28;20771;-77
2022/08/15 04:43:59;;;;;;;23.17;13.25;;;;;;;;;;4989366;28;20050;-77
2022/08/15 04:46:25;;;;;;;22.15;13.32;;;;;;;;;;4988692;28;20108;-77
2022/08/15 04:48:52;;;;;;;22.35;12.68;;;;;;;;;;4989486;28;20100;-78
2022/08/15 04:51:18;;;;;;;16.48;11.82;;;;;;;;;;4988841;28;20089;-77
2022/08/15 04:53:59;;;;;;;21.42;12.77;;;;;;;;;;4985738;28;20050;-77
2022/08/15 04:56:27;;;;;;;17.17;12.30;;;;;;;;;;4999767;28;20109;-77
2022/08/15 04:59:14;;;;;;;17.77;13.23;;;;;;;;;;4989114;28;20046;-77
2022/08/15 05:02:00;;;;;;;20.73;12.88;;;;;;;;;;4990079;28;20046;-77
2022/08/15 05:04:47;;;;;;;16.35;12.68;;;;;;;;;;4992210;28;20477;-78
2022/08/15 05:07:16;;;;;;;20.02;14.02;;;;;;;;;;4992263;28;20068;-78
2022/08/15 05:09:43;;;;;;;17.35;12.35;;;;;;;;;;4992448;28;20077;-78
2022/08/15 05:12:29;;;;;;;18.52;13.05;;;;;;;;;;4991376;28;20054;-78
2022/08/15 05:15:00;;;;;;;18.85;12.90;;;;;;;;;;4992657;28;20540;-78
2022/08/15 05:17:27;;;;;;;17.45;12.55;;;;;;;;;;4993719;28;20547;-78
2022/08/15 05:20:16;;;;;;;22.85;11.55;;;;;;;;;;4997575;28;20058;-76
2022/08/15 05:22:55;;;;;;;15.85;12.68;;;;;;;;;;4981589;28;20046;-77
2022/08/15 05:25:26;;;;;;;18.63;12.77;;;;;;;;;;5001222;28;20072;-78
2022/08/15 05:27:52;;;;;;;16.85;12.98;;;;;;;;;;4991802;28;20084;-78
2022/08/15 05:30:20;;;;;;;18.52;12.80;;;;;;;;;;4994008;28;20069;-78
2022/08/15 05:32:47;;;;;;;17.98;13.15;;;;;;;;;;4987612;28;20054;-78
2022/08/15 05:35:15;;;;;;;21.85;12.85;;;;;;;;;;4992051;28;20112;-77
2022/08/15 05:37:44;;;;;;;18.63;12.48;;;;;;;;;;5003943;28;20163;-77
2022/08/15 05:40:11;;;;;;;19.63;12.25;;;;;;;;;;5004230;28;20087;-78
2022/08/15 05:42:49;;;;;;;18.65;12.38;;;;;;;;;;5002807;28;20145;-78
2022/08/15 05:45:30;;;;;;;17.17;12.82;;;;;;;;;;5004470;28;20057;-77
2022/08/15 05:48:13;;;;;;;16.33;12.27;;;;;;;;;;5003538;28;20054;-77
2022/08/15 05:50:51;;;;;;;18.77;12.20;;;;;;;;;;5004221;28;20046;-77
2022/08/15 05:53:31;;;;;;;18.77;11.88;;;;;;;;;;4990425;28;20054;-78
2022/08/15 05:56:15;;;;;;;21.08;12.25;;;;;;;;;;4993422;28;20097;-78
2022/08/15 05:58:59;;;;;;;17.75;11.70;;;;;;;;;;4975065;28;20064;-77
2022/08/15 06:01:30;;;;;;;25.27;12.50;;;;;;;;;;5000013;28;20050;-77
2022/08/15 06:04:07;;;;;;;19.80;11.95;;;;;;;;;;4981649;28;20058;-78
2022/08/15 06:06:55;;;;;;;17.63;11.68;;;;;;;;;;4982872;28;20054;-77
2022/08/15 06:09:23;;;;;;;18.58;12.25;;;;;;;;;;4985049;28;20074;-78
2022/08/15 06:11:53;;;;;;;14.75;11.13;;;;;;;;;;4991877;28;20057;-77
2022/08/15 06:14:27;;;;;;;19.75;10.98;;;;;;;;;;5004023;28;20085;-79
2022/08/15 06:17:04;;;;;;;18.05;11.88;;;;;;;;;;5002563;28;20050;-78
2022/08/15 06:19:32;;;;;;;17.70;11.32;;;;;;;;;;5000820;28;20054;-78
2022/08/15 06:22:26;;;;;;;17.42;10.63;;;;;;;;;;5005330;28;20053;-77
2022/08/15 06:25:01;;;;;;;16.13;10.98;;;;;;;;;;5006569;28;20157;-78
2022/08/15 06:27:37;;;;;;;16.80;11.35;;;;;;;;;;4992614;28;20112;-78
2022/08/15 06:30:29;;;;;;;24.23;11.10;;;;;;;;;;4993787;28;20046;-77
2022/08/15 06:33:04;;;;;;;17.25;10.50;;;;;;;;;;4992841;28;20055;-77
2022/08/15 06:35:34;;;;;;;19.10;11.07;;;;;;;;;;4989554;28;20125;-78
2022/08/15 06:38:19;;;;;;;17.95;9.35;;;;;;;;;;4987388;28;20062;-78
2022/08/15 06:41:21;;;;;;;15.73;9.48;;;;;;;;;;4987352;28;20498;-77
2022/08/15 06:43:50;;;;;;;16.17;9.98;;;;;;;;;;4987360;28;20097;-77
2022/08/15 06:46:25;;;;;;;13.77;8.55;;;;;;;;;;4988018;28;20465;-75
2022/08/15 06:49:12;;;;;;;18.85;9.63;;;;;;;;;;4987627;28;20050;-78
2022/08/15 06:51:41;;;;;;;13.65;8.45;;;;;;;;;;4986900;28;20078;-77
2022/08/15 06:54:29;;;;;;;16.60;8.65;;;;;;;;;;4986503;28;20502;-78
2022/08/15 06:57:23;;;;;;;16.63;9.20;;;;;;;;;;4998249;28;20046;-78
2022/08/15 06:59:50;;;;;;;12.52;7.50;;;;;;;;;;5006448;28;20052;-78
2022/08/15 07:02:34;;;;;;;12.77;7.35;;;;;;;;;;5006494;28;20046;-78
2022/08/15 07:05:24;;;;;;;22.08;7.15;;;;;;;;;;4996611;28;20047;-78
2022/08/15 07:08:01;;;;;;;17.55;7.38;;;;;;;;;;4989624;28;20134;-78
2022/08/15 07:10:33;;;;;;;23.85;7.22;;;;;;;;;;4992042;28;20749;-77
2022/08/15 07:13:00;;;;;;;14.27;6.97;;;;;;;;;;4989906;28;20073;-78
2022/08/15 07:15:46;;;;;;;13.20;7.03;;;;;;;;;;4991221;28;20141;-78
2022/08/15 07:18:23;;;;;;;16.67;7.80;;;;;;;;;;4991799;28;20058;-78
2022/08/15 07:21:10;;;;;;;9.52;6.35;;;;;;;;;;4990523;28;20133;-78
2022/08/15 07:23:55;;;;;;;13.85;6.85;;;;;;;;;;4990194;28;20085;-78
2022/08/15 07:26:25;;;;;;;12.20;6.53;;;;;;;;;;4991010;28;20108;-77
2022/08/15 07:28:51;;;;;;;13.48;7.25;;;;;;;;;;4990590;28;20085;-76
2022/08/15 07:31:21;;;;;;;12.20;6.57;;;;;;;;;;4990825;28;20074;-76
2022/08/15 07:33:51;;;;;;;11.80;6.53;;;;;;;;;;4989807;28;20046;-76
2022/08/15 07:36:28;;;;;;;13.38;6.78;;;;;;;;;;4990729;28;20050;-77
2022/08/15 07:39:19;;;;;;;15.65;6.57;;;;;;;;;;4990753;28;20076;-77
2022/08/15 07:42:12;;;;;;;9.90;6.50;;;;;;;;;;4989761;28;20451;-77
2022/08/15 07:45:00;;;;;;;9.27;5.63;;;;;;;;;;4990162;28;20500;-77
2022/08/15 07:47:28;;;;;;;9.80;6.15;;;;;;;;;;4992259;28;20462;-79
2022/08/15 07:50:20;;;;;;;11.35;6.43;;;;;;;;;;4992577;28;20057;-78
2022/08/15 07:53:04;;;;;;;8.63;6.07;;;;;;;;;;4983447;28;20053;-77
2022/08/15 07:55:31;;;;;;;12.15;6.82;;;;;;;;;;4998945;28;20122;-78
2022/08/15 07:58:19;;;;;;;15.30;6.93;;;;;;;;;;4975426;28;20054;-78
2022/08/15 08:01:07;;;;;;;17.92;6.82;;;;;;;;;;4990061;28;20058;-78
2022/08/15 08:04:13;;;;;;;13.23;6.68;;;;;;;;;;4989740;28;20456;-78
2022/08/15 08:06:52;;;;;;;9.30;6.28;;;;;;;;;;4990350;28;20508;-76
2022/08/15 08:09:39;;;;;;;13.73;6.43;;;;;;;;;;4991223;28;20047;-78
2022/08/15 08:12:14;;;;;;;15.43;6.50;;;;;;;;;;4971567;28;20130;-79
2022/08/15 08:15:17;;;;;;;11.68;6.60;;;;;;;;;;4989698;28;20065;-79
2022/08/15 08:18:05;;;;;;;10.73;6.22;;;;;;;;;;4975238;28;20452;-77
2022/08/15 08:20:53;;;;;;;11.40;6.20;;;;;;;;;;4988861;28;20061;-78
2022/08/15 08:23:29;;;;;;;11.57;6.40;;;;;;;;;;4989508;28;20081;-78
2022/08/15 08:26:02;;;;;;;16.77;6.47;;;;;;;;;;4991219;28;20518;-78
2022/08/15 08:28:51;;;;;;;15.10;6.13;;;;;;;;;;4990680;28;20054;-77
2022/08/15 08:31:23;;;;;;;12.00;6.03;;;;;;;;;;4990047;28;20057;-77
2022/08/15 08:33:53;;;;;;;8.77;5.95;;;;;;;;;;4990265;28;20046;-77
2022/08/15 08:36:56;;;;;;;9.80;5.72;;;;;;;;;;4998685;28;20059;-77
2022/08/15 08:39:34;;;;;;;14.82;6.57;;;;;;;;;;4938806;29;20044;-77
2022/08/15 08:42:19;;;;;;;13.27;5.90;;;;;;;;;;4987099;28;20069;-77
2022/08/15 08:44:50;;;;;;;7.67;6.17;;;;;;;;;;4991411;28;20073;-78
2022/08/15 08:47:43;;;;;;;10.23;6.32;;;;;;;;;;4989787;28;20054;-77
2022/08/15 08:50:14;;;;;;;10.85;6.72;;;;;;;;;;4989227;28;20184;-78
2022/08/15 08:53:03;;;;;;;8.45;6.25;;;;;;;;;;4988293;28;20046;-78
2022/08/15 08:55:47;;;;;;;12.57;6.53;;;;;;;;;;4998072;28;20101;-77
2022/08/15 08:58:31;;;;;;;7.68;6.30;;;;;;;;;;5006088;28;20053;-76
2022/08/15 09:01:11;;;;;;;11.77;6.57;;;;;;;;;;5008187;28;20141;-79
2022/08/15 09:03:40;;;;;;;12.18;6.50;;;;;;;;;;5007226;28;20065;-77
2022/08/15 09:06:10;;;;;;;9.93;6.75;;;;;;;;;;4989007;28;20554;-77
2022/08/15 09:08:57;;;;;;;9.38;6.55;;;;;;;;;;4989151;28;20717;-75
2022/08/15 09:11:28;;;;;;;9.40;5.95;;;;;;;;;;4987869;28;20100;-77
2022/08/15 09:13:57;;;;;;;11.63;6.40;;;;;;;;;;4988297;28;20132;-77
2022/08/15 09:16:24;;;;;;;8.32;5.95;;;;;;;;;;4989299;28;20086;-78
2022/08/15 09:18:54;;;;;;;13.10;6.30;;;;;;;;;;4989030;28;20064;-78
2022/08/15 09:21:22;;;;;;;10.82;6.20;;;;;;;;;;4988527;28;20137;-77
2022/08/15 09:23:50;;;;;;;9.77;6.10;;;;;;;;;;4987864;28;20687;-78
2022/08/15 09:26:19;;;;;;;8.55;6.22;;;;;;;;;;4988699;28;20058;-77
2022/08/15 09:28:54;;;;;;;9.82;6.60;;;;;;;;;;4988432;28;20046;-77
2022/08/15 09:31:25;;;;;;;11.70;6.13;;;;;;;;;;4988233;28;20050;-77
2022/08/15 09:34:31;;;;;;;12.45;6.40;;;;;;;;;;4989230;28;20101;-79
2022/08/15 09:36:59;;;;;;;9.10;6.05;;;;;;;;;;4982781;28;20196;-76
2022/08/15 09:39:37;;;;;;;9.95;6.15;;;;;;;;;;4973327;28;20133;-76
2022/08/15 09:42:13;;;;;;;13.38;6.03;;;;;;;;;;4985944;28;20069;-75
2022/08/15 09:44:59;;;;;;;7.95;5.90;;;;;;;;;;4982800;28;20050;-78
2022/08/15 09:47:29;;;;;;;12.20;6.05;;;;;;;;;;5014484;28;20160;-77
2022/08/15 09:50:18;;;;;;;10.32;6.35;;;;;;;;;;5000150;28;20520;-76
2022/08/15 09:53:12;;;;;;;10.07;6.45;;;;;;;;;;5008870;28;20060;-77
2022/08/15 09:55:44;;;;;;;12.35;6.72;;;;;;;;;;4990624;28;20491;-78
2022/08/15 09:58:20;;;;;;;11.70;6.03;;;;;;;;;;5005418;28;20494;-78
2022/08/15 10:01:05;;;;;;;11.20;6.22;;;;;;;;;;5007129;28;20053;-78
2022/08/15 10:03:32;;;;;;;;;;;;;;;;;;5010180;28;20602;-78
2022/08/15 10:06:08;;;;;;;13.95;6.53;;;;;;;;;;4992116;28;19984;-78
2022/08/15 10:08:54;;;;;;;11.73;6.28;;;;;;;;;;4979777;28;20050;-78
2022/08/15 10:11:41;;;;;;;10.10;6.93;;;;;;;;;;4973209;28;20145;-77
2022/08/15 10:14:44;;;;;;;12.30;6.25;;;;;;;;;;4994962;28;20065;-77
2022/08/15 10:17:30;;;;;;;21.80;7.97;;;;;;;;;;4972339;28;20149;-79
2022/08/15 10:20:14;;;;;;;18.27;8.30;;;;;;;;;;5015988;28;20044;-79
2022/08/15 10:22:48;;;;;;;16.25;8.90;;;;;;;;;;5021509;28;20060;-78
2022/08/15 10:25:18;;;;;;;19.23;8.98;;;;;;;;;;5027537;28;20058;-79
2022/08/15 10:27:56;;;;;;;13.50;8.38;;;;;;;;;;5010503;28;20074;-79
2022/08/15 10:30:27;;;;;;;13.82;8.90;;;;;;;;;;4989252;28;20081;-78
2022/08/15 10:33:21;;;;;;;13.00;8.88;;;;;;;;;;5007464;28;20497;-78
2022/08/15 10:35:49;;;;;;;14.30;9.68;;;;;;;;;;5006591;28;20494;-80
2022/08/15 10:38:22;;;;;;;15.05;9.15;;;;;;;;;;5017121;28;20054;-77
2022/08/15 10:41:16;;;;;;;14.85;9.95;;;;;;;;;;5024815;28;20368;-79
2022/08/15 10:44:01;;;;;;;20.20;9.95;;;;;;;;;;5023997;28;20597;-80
2022/08/15 10:46:35;;;;;;;16.65;10.05;;;;;;;;;;5029812;28;20056;-77
2022/08/15 10:49:33;;;;;;;14.23;9.38;;;;;;;;;;5027849;28;20577;-79
2022/08/15 10:52:27;;;;;;;15.77;8.80;;;;;;;;;;5021204;28;20054;-79
2022/08/15 10:55:06;;;;;;;14.48;9.07;;;;;;;;;;5013237;28;20073;-79
2022/08/15 10:57:46;;;;;;;13.32;9.15;;;;;;;;;;5013506;28;20450;-79
2022/08/15 11:00:29;;;;;;;14.27;9.07;;;;;;;;;;5018711;28;20049;-78
2022/08/15 11:03:22;;;;;;;12.55;9.05;;;;;;;;;;5018391;28;20248;-79
2022/08/15 11:06:12;;;;;;;15.13;9.00;;;;;;;;;;5001909;28;20054;-78
2022/08/15 11:08:44;;;;;;;17.52;9.43;;;;;;;;;;5001353;28;20125;-79
2022/08/15 11:11:12;;;;;;;14.90;9.05;;;;;;;;;;5000231;28;20130;-78
2022/08/15 11:14:11;;;;;;;13.65;8.80;;;;;;;;;;4995778;28;20499;-80
2022/08/15 11:16:56;;;;;;;13.70;8.20;;;;;;;;;;5010449;28;20064;-78
2022/08/15 11:19:32;;;;;;;12.35;8.60;;;;;;;;;;5005998;28;20803;-77
2022/08/15 11:22:29;;;;;;;13.52;8.70;;;;;;;;;;4992851;28;20659;-77
2022/08/15 11:24:59;;;;;;;15.82;8.63;;;;;;;;;;4993639;28;20133;-77
2022/08/15 11:27:26;;;;;;;19.85;10.52;;;;;;;;;;4996761;28;20065;-79
2022/08/15 11:29:59;;;;;;;18.42;10.20;;;;;;;;;;4996264;28;20056;-79
2022/08/15 11:32:45;;;;;;;22.02;10.48;;;;;;;;;;4997678;28;20060;-78
2022/08/15 11:35:20;;;;;;;17.40;10.15;;;;;;;;;;4991977;28;20522;-78
2022/08/15 11:37:47;;;;;;;14.40;9.82;;;;;;;;;;4990947;28;20085;-77
2022/08/15 11:40:33;;;;;;;14.75;9.10;;;;;;;;;;4998427;28;20060;-78
2022/08/15 11:43:01;;;;;;;15.70;9.57;;;;;;;;;;4992817;28;20578;-75
2022/08/15 11:45:40;;;;;;;10.75;8.52;;;;;;;;;;4996386;28;20435;-78
2022/08/15 11:48:25;;;;;;;13.88;8.45;;;;;;;;;;4991826;28;20046;-78
2022/08/15 11:51:09;;;;;;;14.68;8.27;;;;;;;;;;4993686;28;20058;-80
2022/08/15 11:53:56;;;;;;;12.90;7.13;;;;;;;;;;5015146;28;20069;-78
2022/08/15 11:56:24;;;;;;;19.08;6.47;;;;;;;;;;5016953;28;20050;-79
2022/08/15 11:59:18;;;;;;;16.48;6.75;;;;;;;;;;4997409;28;20050;-78
2022/08/15 12:01:59;;;;;;;10.85;5.97;;;;;;;;;;4993641;28;20137;-78
2022/08/15 12:04:28;;;;;;;10.73;5.90;;;;;;;;;;4993165;28;20535;-79
2022/08/15 12:07:14;;;;;;;8.38;5.53;;;;;;;;;;4993654;28;20100;-79
2022/08/15 12:09:48;;;;;;;10.05;5.82;;;;;;;;;;4997388;28;20512;-80
2022/08/15 12:12:24;;;;;;;9.85;6.25;;;;;;;;;;4977852;28;20677;-78
2022/08/15 12:14:55;;;;;;;7.50;6.07;;;;;;;;;;5007006;28;20546;-79
2022/08/15 12:17:25;;;;;;;11.13;5.82;;;;;;;;;;5005297;28;20051;-78
2022/08/15 12:20:13;;;;;;;13.48;6.22;;;;;;;;;;4999198;28;20080;-77
2022/08/15 12:22:54;;;;;;;7.50;5.57;;;;;;;;;;4995347;28;20055;-77
2022/08/15 12:25:30;;;;;;;8.18;5.47;;;;;;;;;;4998903;28;20058;-77
2022/08/15 12:28:18;;;;;;;7.80;5.38;;;;;;;;;;4996619;28;20116;-77
2022/08/15 12:31:22;;;;;;;8.75;6.03;;;;;;;;;;4993115;28;20050;-78
2022/08/15 12:33:59;;;;;;;9.43;5.88;;;;;;;;;;5001089;28;20050;-79
2022/08/15 12:36:27;;;;;;;10.40;6.22;;;;;;;;;;4993946;28;20061;-78
2022/08/15 12:39:14;;;;;;;10.20;6.20;;;;;;;;;;4994238;28;20050;-79
2022/08/15 12:41:43;;;;;;;7.95;6.28;;;;;;;;;;4991927;28;20046;-77
2022/08/15 12:44:34;;;;;;;10.07;6.40;;;;;;;;;;4991978;28;20051;-79
2022/08/15 12:47:04;;;;;;;11.93;5.93;;;;;;;;;;4994821;28;20090;-79
2022/08/15 12:49:32;;;;;;;6.53;5.57;;;;;;;;;;4974126;28;20303;-78
2022/08/15 12:52:13;;;;;;;11.02;6.10;;;;;;;;;;4992755;28;20062;-78
2022/08/15 12:54:43;;;;;;;10.20;6.00;;;;;;;;;;4997296;28;20058;-78
2022/08/15 12:57:11;;;;;;;8.77;6.18;;;;;;;;;;5004629;28;20682;-78
2022/08/15 12:59:44;;;;;;;8.75;6.47;;;;;;;;;;5011608;28;20169;-79
2022/08/15 13:02:12;;;;;;;8.73;6.55;;;;;;;;;;5019646;28;20046;-78
2022/08/15 13:05:00;;;;;;;8.57;6.68;;;;;;;;;;5007221;28;20491;-78
2022/08/15 13:07:28;;;;;;;9.85;6.63;;;;;;;;;;4993174;28;20053;-78
2022/08/15 13:09:58;;;;;;;9.20;6.13;;;;;;;;;;4991589;28;20050;-78
2022/08/15 13:12:45;;;;;;;13.18;5.72;;;;;;;;;;4969344;28;20146;-77
2022/08/15 13:15:12;;;;;;;9.35;5.47;;;;;;;;;;4999400;28;20081;-77
2022/08/15 13:17:38;;;;;;;8.65;5.10;;;;;;;;;;4990405;28;20109;-79
2022/08/15 13:25:44;;;;;;;4.93;4.00;;;;;;;;;;4990206;28;20086;-78
2022/08/15 13:28:13;;;;;;;7.25;4.30;;;;;;;;;;4989864;28;20054;-79
2022/08/15 13:30:40;;;;;;;9.18;4.72;;;;;;;;;;4986889;28;20518;-76
2022/08/15 13:33:28;;;;;;;7.75;4.78;;;;;;;;;;4990234;28;20541;-77
2022/08/15 13:35:56;;;;;;;13.65;6.03;;;;;;;;;;4990367;28;20072;-77
2022/08/15 13:38:28;;;;;;;11.68;6.05;;;;;;;;;;4993488;28;20065;-79
2022/08/15 13:40:57;;;;;;;13.40;6.95;;;;;;;;;;4995781;28;20054;-77
2022/08/15 13:43:28;;;;;;;10.68;6.53;;;;;;;;;;4992798;28;20050;-79
2022/08/15 13:46:16;;;;;;;14.68;7.80;;;;;;;;;;4997322;28;20492;-77
2022/08/15 13:48:59;;;;;;;12.82;8.10;;;;;;;;;;4979547;28;20080;-78
2022/08/15 13:51:41;;;;;;;16.00;9.00;;;;;;;;;;4992485;28;20050;-78
2022/08/15 13:54:28;;;;;;;14.30;9.85;;;;;;;;;;4991818;28;20046;-76
2022/08/15 13:57:11;;;;;;;21.13;9.40;;;;;;;;;;5001873;28;20061;-76
2022/08/15 13:59:39;;;;;;;15.63;9.57;;;;;;;;;;5008982;28;20125;-78
2022/08/15 14:02:10;;;;;;;17.35;10.48;;;;;;;;;;5000975;28;20112;-75
2022/08/15 14:04:58;;;;;;;18.85;10.80;;;;;;;;;;4989831;28;20054;-76
2022/08/15 14:07:26;;;;;;;19.77;11.75;;;;;;;;;;4990877;28;20054;-76
2022/08/15 14:10:17;;;;;;;17.83;11.27;;;;;;;;;;4989970;28;20101;-76
2022/08/15 14:13:04;;;;;;;26.50;12.60;;;;;;;;;;4973490;28;20054;-76
2022/08/15 14:15:43;;;;;;;24.10;12.38;;;;;;;;;;4987375;28;20133;-76
2022/08/15 14:18:30;;;;;;;25.40;12.52;;;;;;;;;;4989557;28;20054;-76
2022/08/15 14:21:16;;;;;;;20.40;11.80;;;;;;;;;;4994858;28;20054;-77
2022/08/15 14:23:55;;;;;;;22.90;12.07;;;;;;;;;;4977750;28;20133;-76
2022/08/15 14:26:24;;;;;;;18.55;10.85;;;;;;;;;;4975554;28;20046;-76
2022/08/15 14:29:21;;;;;;;26.88;13.43;;;;;;;;;;4991892;28;20438;-76
2022/08/15 14:32:12;;;;;;;25.35;12.15;;;;;;;;;;4992468;28;20526;-75
2022/08/15 14:34:58;;;;;;;24.13;12.63;;;;;;;;;;4978234;28;20089;-76
2022/08/15 14:37:25;;;;;;;21.27;12.18;;;;;;;;;;4993455;28;20046;-77
2022/08/15 14:40:13;;;;;;;21.95;12.15;;;;;;;;;;4977844;28;20475;-77
2022/08/15 14:42:46;;;;;;;23.10;14.10;;;;;;;;;;4991324;28;20100;-78
2022/08/15 14:45:17;;;;;;;25.20;15.70;;;;;;;;;;4991920;28;20058;-77
2022/08/15 14:48:08;;;;;;;21.55;13.95;;;;;;;;;;4991683;28;20408;-79
2022/08/15 14:50:55;;;;;;;27.23;14.48;;;;;;;;;;4957739;28;20047;-78
2022/08/15 14:53:43;;;;;;;23.55;13.40;;;;;;;;;;4976711;28;20503;-78
2022/08/15 14:56:10;;;;;;;27.38;14.75;;;;;;;;;;5001420;28;20055;-78
2022/08/15 14:58:39;;;;;;;28.13;16.17;;;;;;;;;;5011861;28;20101;-78
2022/08/15 15:01:11;;;;;;;27.48;15.20;;;;;;;;;;5011643;28;20061;-76
2022/08/15 15:03:56;;;;;;;25.77;15.00;;;;;;;;;;5011568;28;20065;-76
2022/08/15 15:06:27;;;;;;;24.25;13.65;;;;;;;;;;5011730;28;20049;-75
2022/08/15 15:08:56;;;;;;;23.40;13.40;;;;;;;;;;5012579;28;20064;-77
2022/08/15 15:11:24;;;;;;;25.38;12.70;;;;;;;;;;5011837;28;20042;-76
2022/08/15 15:13:51;;;;;;;19.33;12.45;;;;;;;;;;5013380;28;20050;-76
2022/08/15 15:16:21;;;;;;;21.00;11.80;;;;;;;;;;5006937;28;20054;-77
2022/08/15 15:19:09;;;;;;;22.42;11.52;;;;;;;;;;4992105;28;20097;-77
2022/08/15 15:21:36;;;;;;;15.32;10.82;;;;;;;;;;4991051;28;20058;-77
2022/08/15 15:24:03;;;;;;;15.23;9.38;;;;;;;;;;4990757;28;20060;-77
2022/08/15 15:26:29;;;;;;;14.13;8.20;;;;;;;;;;4991629;28;20148;-78
2022/08/15 15:29:03;;;;;;;13.63;8.18;;;;;;;;;;4990705;28;20054;-78
2022/08/15 15:31:32;;;;;;;13.27;7.60;;;;;;;;;;4974280;28;20137;-78
2022/08/15 15:33:58;;;;;;;14.55;8.35;;;;;;;;;;4991762;28;20105;-78